Time;durP1;ratioP1;P1;durP2;ratioP2;P2;SDS_P1;SDS_P2;PMS_P1;PMS_P2;Temp;Humidity;BMP_temperature;BMP_pressure;BME280_temperature;BME280_humidity;BME280_pressure;Samples;Min_cycle;Max_cycle;Signal;HPM_P1;HPM_P2
2021/06/21 00:02:27;;;;;;;3.23;3.03;;;;;;;17.10;100.00;96975.91;5051661;28;20255;-86
2021/06/21 00:04:55;;;;;;;5.23;3.13;;;;;;;17.21;100.00;96968.47;5051850;28;20202;-86
2021/06/21 00:07:22;;;;;;;3.63;3.33;;;;;;;17.38;100.00;96955.84;5051710;28;20205;-86
2021/06/21 00:09:52;;;;;;;4.83;3.00;;;;;;;17.43;100.00;96932.22;5051468;28;20627;-86
2021/06/21 00:12:19;;;;;;;3.60;3.30;;;;;;;17.45;100.00;96911.56;5051639;28;20240;-86
2021/06/21 00:14:47;;;;;;;3.60;3.30;;;;;;;17.49;100.00;96907.53;5051296;28;20206;-86
2021/06/21 00:17:16;;;;;;;3.43;3.23;;;;;;;17.45;100.00;96901.75;5051510;28;20256;-86
2021/06/21 00:19:43;;;;;;;5.53;3.93;;;;;;;17.48;100.00;96890.75;5051177;28;20292;-86
2021/06/21 00:22:11;;;;;;;3.00;2.80;;;;;;;17.64;100.00;96851.69;5051432;28;20200;-86
2021/06/21 00:24:38;;;;;;;3.60;3.40;;;;;;;17.57;100.00;96841.00;5051542;28;20560;-86
2021/06/21 00:27:07;;;;;;;3.80;3.50;;;;;;;17.21;100.00;96833.81;5051735;28;20571;-86
2021/06/21 00:29:35;;;;;;;3.87;3.57;;;;;;;17.12;100.00;96850.91;5051206;28;20201;-86
2021/06/21 00:32:02;;;;;;;3.50;3.30;;;;;;;17.05;100.00;96858.78;5051100;28;20229;-86
2021/06/21 00:34:29;;;;;;;3.87;3.57;;;;;;;17.10;100.00;96856.38;5051176;28;20678;-86
2021/06/21 00:36:57;;;;;;;4.13;3.60;;;;;;;17.22;100.00;96853.28;5051861;28;20244;-85
2021/06/21 00:39:24;;;;;;;8.73;4.50;;;;;;;17.14;100.00;96829.44;5054957;28;20634;-86
2021/06/21 00:41:51;;;;;;;4.40;3.30;;;;;;;17.41;100.00;96807.50;5054859;28;20198;-86
2021/06/21 00:44:20;;;;;;;4.53;3.90;;;;;;;17.14;100.00;96798.41;5054715;28;20198;-86
2021/06/21 00:46:47;;;;;;;3.70;3.40;;;;;;;16.99;100.00;96802.94;5054847;28;20292;-86
2021/06/21 00:49:15;;;;;;;4.83;4.33;;;;;;;16.92;100.00;96810.00;5054567;28;20780;-86
2021/06/21 00:51:43;;;;;;;3.70;3.40;;;;;;;16.88;100.00;96825.47;5054494;28;20222;-86
2021/06/21 00:54:10;;;;;;;4.53;3.70;;;;;;;16.87;100.00;96814.03;5054840;28;20659;-86
2021/06/21 00:56:38;;;;;;;3.83;3.23;;;;;;;16.95;100.00;96815.75;5054924;28;20205;-86
2021/06/21 00:59:06;;;;;;;3.10;2.90;;;;;;;17.01;100.00;96787.66;5054723;28;20202;-86
2021/06/21 01:01:35;;;;;;;8.47;3.03;;;;;;;16.96;100.00;96771.44;5054415;28;20220;-86
2021/06/21 01:04:03;;;;;;;4.43;3.53;;;;;;;17.23;100.00;96748.66;5054098;28;20221;-86
2021/06/21 01:06:30;;;;;;;3.83;3.53;;;;;;;17.05;100.00;96717.22;5054753;28;20620;-85
2021/06/21 01:08:58;;;;;;;3.90;3.60;;;;;;;16.94;100.00;96718.53;5054261;28;20229;-86
2021/06/21 01:11:37;;;;;;;3.43;3.23;;;;;;;17.09;100.00;96713.16;5054199;28;20238;-86
2021/06/21 01:14:10;;;;;;;4.60;4.00;;;;;;;17.13;100.00;96711.78;5054117;28;20240;-86
2021/06/21 01:16:45;;;;;;;3.70;3.40;;;;;;;16.98;100.00;96681.81;5054607;28;20213;-86
2021/06/21 01:19:21;;;;;;;3.50;3.10;;;;;;;16.82;100.00;96691.63;5053890;28;20225;-86
2021/06/21 01:22:21;;;;;;;3.87;3.57;;;;;;;16.78;100.00;96714.25;5054637;28;20626;-86
2021/06/21 01:25:05;;;;;;;4.20;3.80;;;;;;;16.80;100.00;96714.91;5050627;28;20712;-86
2021/06/21 01:27:39;;;;;;;3.83;3.03;;;;;;;16.74;100.00;96707.69;5054348;28;20222;-86
2021/06/21 01:30:09;;;;;;;4.03;3.40;;;;;;;16.85;100.00;96685.13;5053811;28;20284;-86
2021/06/21 01:32:43;;;;;;;3.97;3.33;;;;;;;16.74;100.00;96662.56;5053976;28;20197;-86
2021/06/21 01:35:17;;;;;;;3.70;3.47;;;;;;;16.75;100.00;96663.38;5054002;28;20614;-85
2021/06/21 01:37:46;;;;;;;3.67;2.83;;;;;;;16.85;100.00;96661.25;5053988;28;20192;-86
2021/06/21 01:40:18;;;;;;;5.03;3.70;;;;;;;16.77;100.00;96640.13;5053601;28;20197;-86
2021/06/21 01:42:51;;;;;;;4.57;2.70;;;;;;;16.88;100.00;96626.34;5054046;28;20181;-86
2021/06/21 01:45:19;;;;;;;3.03;2.77;;;;;;;16.92;100.00;96603.72;5053655;28;20185;-85
2021/06/21 01:47:53;;;;;;;3.30;3.00;;;;;;;16.84;100.00;96578.13;5053245;28;20233;-86
2021/06/21 01:50:23;;;;;;;2.97;2.77;;;;;;;16.79;100.00;96585.00;5052903;28;20233;-86
2021/06/21 01:53:00;;;;;;;2.43;2.23;;;;;;;16.77;100.00;96581.75;5053773;28;20194;-86
2021/06/21 01:55:30;;;;;;;2.53;2.33;;;;;;;16.81;100.00;96593.63;5053639;28;20619;-86
2021/06/21 01:58:00;;;;;;;2.10;2.00;;;;;;;16.84;100.00;96604.66;5053561;28;20197;-86
2021/06/21 02:00:28;;;;;;;4.07;1.93;;;;;;;17.00;100.00;96608.06;5053163;28;20674;-86
2021/06/21 02:02:58;;;;;;;2.20;2.10;;;;;;;17.01;100.00;96613.22;5053727;28;20201;-86
2021/06/21 02:05:28;;;;;;;2.33;2.23;;;;;;;17.10;100.00;96632.47;5053621;28;20194;-86
2021/06/21 02:07:56;;;;;;;1.93;1.80;;;;;;;17.09;100.00;96638.81;5053418;28;20201;-86
2021/06/21 02:10:24;;;;;;;2.40;2.20;;;;;;;17.11;100.00;96656.19;5052986;28;20202;-86
2021/06/21 02:12:53;;;;;;;2.37;2.17;;;;;;;17.06;100.00;96669.22;5053491;28;20687;-86
2021/06/21 02:15:22;;;;;;;3.60;2.87;;;;;;;17.18;100.00;96688.13;5053023;28;20669;-86
2021/06/21 02:17:50;;;;;;;3.03;2.83;;;;;;;16.85;100.00;96687.78;5053098;28;20294;-86
2021/06/21 02:20:22;;;;;;;2.47;2.27;;;;;;;16.75;100.00;96698.69;5052696;28;20193;-86
2021/06/21 02:22:50;;;;;;;2.70;2.50;;;;;;;16.83;100.00;96708.38;5053478;28;20186;-86
2021/06/21 02:25:18;;;;;;;3.23;3.03;;;;;;;16.87;100.00;96707.84;5052856;28;20202;-86
2021/06/21 02:27:47;;;;;;;5.73;3.40;;;;;;;16.75;100.00;96700.53;5052915;28;20194;-86
2021/06/21 02:30:17;;;;;;;3.23;3.03;;;;;;;16.71;100.00;96705.38;5052833;28;20190;-86
2021/06/21 02:32:46;;;;;;;2.73;2.53;;;;;;;16.65;100.00;96700.78;5052872;28;20710;-86
2021/06/21 02:35:16;;;;;;;7.90;2.90;;;;;;;16.71;100.00;96689.44;5052444;28;20194;-86
2021/06/21 02:37:45;;;;;;;4.40;3.10;;;;;;;16.67;100.00;96682.88;5053542;28;20221;-85
2021/06/21 02:40:15;;;;;;;5.53;3.23;;;;;;;16.81;100.00;96681.22;5052530;28;20190;-86
2021/06/21 02:42:43;;;;;;;3.10;2.90;;;;;;;16.77;100.00;96659.53;5052788;28;20671;-86
2021/06/21 02:45:12;;;;;;;3.50;3.20;;;;;;;16.76;100.00;96647.25;5052520;28;20283;-86
2021/06/21 02:47:40;;;;;;;4.40;2.93;;;;;;;16.83;100.00;96642.00;5052441;28;20229;-86
2021/06/21 02:50:10;;;;;;;3.93;3.00;;;;;;;16.93;100.00;96620.47;5052782;28;20182;-86
2021/06/21 02:52:45;;;;;;;3.20;2.87;;;;;;;17.01;100.00;96607.91;5052534;28;20228;-86
2021/06/21 02:55:22;;;;;;;4.13;3.20;;;;;;;16.75;100.00;96592.53;5052325;28;20192;-86
2021/06/21 02:57:57;;;;;;;5.53;3.10;;;;;;;16.73;100.00;96599.00;5052658;28;20178;-86
2021/06/21 03:00:25;;;;;;;6.70;3.23;;;;;;;16.75;100.00;96608.44;5051884;28;20672;-86
2021/06/21 03:02:55;;;;;;;4.40;3.50;;;;;;;16.73;100.00;96629.03;5052315;28;20247;-86
2021/06/21 03:05:24;;;;;;;5.27;2.83;;;;;;;16.68;100.00;96655.31;5051900;28;20662;-86
2021/06/21 03:07:52;;;;;;;2.70;2.50;;;;;;;16.62;100.00;96640.94;5052506;28;20194;-86
2021/06/21 03:10:23;;;;;;;2.90;2.70;;;;;;;16.75;100.00;96624.38;5052409;28;20582;-86
2021/06/21 03:12:51;;;;;;;3.10;2.90;;;;;;;16.65;100.00;96607.91;5052195;28;20245;-86
2021/06/21 03:15:21;;;;;;;2.63;2.40;;;;;;;16.72;100.00;96608.78;5051838;28;20194;-86
2021/06/21 03:17:51;;;;;;;3.63;2.70;;;;;;;16.73;100.00;96606.97;5070821;28;20288;-86
2021/06/21 03:20:20;;;;;;;8.90;2.73;;;;;;;16.90;100.00;96602.25;5071780;28;20735;-86
2021/06/21 03:22:49;;;;;;;3.43;3.13;;;;;;;16.92;100.00;96606.38;5066633;28;20197;-86
2021/06/21 03:25:24;;;;;;;4.43;3.00;;;;;;;17.01;100.00;96601.78;5065083;28;20289;-86
2021/06/21 03:27:53;;;;;;;3.03;2.47;;;;;;;16.97;100.00;96592.50;5071115;28;20257;-86
2021/06/21 03:30:21;;;;;;;3.60;3.00;;;;;;;17.01;100.00;96589.31;5071406;28;20197;-86
2021/06/21 03:32:51;;;;;;;2.60;2.40;;;;;;;17.09;100.00;96591.81;5071646;28;20582;-86
2021/06/21 03:35:20;;;;;;;3.10;2.90;;;;;;;17.16;100.00;96594.53;5071473;28;20185;-86
2021/06/21 03:37:48;;;;;;;3.03;2.67;;;;;;;17.16;100.00;96610.47;5071619;28;20603;-86
2021/06/21 03:40:16;;;;;;;3.27;2.90;;;;;;;17.27;100.00;96620.56;5070752;28;20288;-86
2021/06/21 03:42:43;;;;;;;2.87;2.40;;;;;;;17.28;100.00;96616.91;5070976;28;20249;-85
2021/06/21 03:45:14;;;;;;;4.57;2.73;;;;;;;17.23;100.00;96615.84;5070758;28;20254;-86
2021/06/21 03:47:42;;;;;;;3.07;2.77;;;;;;;17.32;100.00;96602.22;5071277;28;20236;-87
2021/06/21 03:50:11;;;;;;;3.03;2.77;;;;;;;17.41;100.00;96586.13;5072029;28;20182;-87
2021/06/21 03:52:38;;;;;;;5.30;2.90;;;;;;;17.51;100.00;96581.31;5071233;28;20898;-86
2021/06/21 03:55:09;;;;;;;3.23;2.47;;;;;;;17.46;100.00;96576.59;5071681;28;20612;-87
2021/06/21 03:57:39;;;;;;;3.53;2.80;;;;;;;17.41;100.00;96572.84;5071618;28;20220;-87
2021/06/21 04:00:09;;;;;;;4.20;2.93;;;;;;;17.44;100.00;96567.16;5071634;28;20666;-87
2021/06/21 04:02:38;;;;;;;3.60;2.63;;;;;;;17.51;100.00;96568.84;5071320;28;20630;-86
2021/06/21 04:05:06;;;;;;;3.97;2.60;;;;;;;17.57;100.00;96556.63;5070580;28;20208;-84
2021/06/21 04:07:34;;;;;;;2.43;2.30;;;;;;;17.50;100.00;96539.81;5069500;28;20201;-85
2021/06/21 04:10:02;;;;;;;3.10;2.77;;;;;;;17.51;100.00;96525.50;5071315;28;20201;-85
2021/06/21 04:12:31;;;;;;;5.27;2.97;;;;;;;17.45;100.00;96524.44;5073046;28;20221;-85
2021/06/21 04:14:58;;;;;;;3.63;3.33;;;;;;;17.42;100.00;96534.63;5075446;28;20197;-85
2021/06/21 04:17:26;;;;;;;3.50;2.67;;;;;;;17.52;100.00;96540.41;5075138;28;20292;-85
2021/06/21 04:19:54;;;;;;;3.27;2.70;;;;;;;17.41;100.00;96517.88;5073772;28;20286;-83
2021/06/21 04:22:22;;;;;;;3.07;2.87;;;;;;;17.44;100.00;96506.03;5074118;28;20659;-83
2021/06/21 04:24:49;;;;;;;3.03;2.60;;;;;;;17.48;100.00;96518.72;5074588;28;20197;-84
2021/06/21 04:27:17;;;;;;;3.43;2.87;;;;;;;17.53;100.00;96526.13;5066832;28;20201;-83
2021/06/21 04:29:44;;;;;;;2.70;2.50;;;;;;;17.69;100.00;96536.44;5070499;28;20208;-83
2021/06/21 04:32:11;;;;;;;2.70;2.50;;;;;;;17.72;100.00;96546.66;5057267;28;20229;-83
2021/06/21 04:34:39;;;;;;;4.83;2.90;;;;;;;17.81;100.00;96571.31;5054804;28;20202;-83
2021/06/21 04:37:07;;;;;;;5.27;2.50;;;;;;;17.89;100.00;96597.72;5071350;28;20727;-83
2021/06/21 04:39:35;;;;;;;3.10;2.80;;;;;;;17.81;100.00;96581.94;5074452;28;20240;-83
2021/06/21 04:42:02;;;;;;;8.43;3.47;;;;;;;17.77;100.00;96581.50;5074703;28;20201;-83
2021/06/21 04:44:29;;;;;;;4.13;3.20;;;;;;;17.78;100.00;96569.84;5074473;28;20189;-83
2021/06/21 04:46:57;;;;;;;4.83;3.30;;;;;;;17.97;100.00;96552.34;5073801;28;20573;-84
2021/06/21 04:49:24;;;;;;;5.97;3.20;;;;;;;17.81;100.00;96529.56;5074218;28;20224;-84
2021/06/21 04:51:52;;;;;;;3.37;3.17;;;;;;;17.79;100.00;96520.97;5074958;28;20369;-83
2021/06/21 04:54:21;;;;;;;4.80;4.40;;;;;;;17.71;100.00;96499.03;5074683;28;20619;-83
2021/06/21 04:56:48;;;;;;;4.20;3.90;;;;;;;17.66;100.00;96504.09;5060223;28;20294;-83
2021/06/21 04:59:16;;;;;;;5.10;3.50;;;;;;;17.64;100.00;96512.28;5054207;28;20202;-83
2021/06/21 05:01:43;;;;;;;3.77;3.47;;;;;;;17.77;100.00;96522.22;5054469;28;20198;-83
2021/06/21 05:04:10;;;;;;;3.93;3.40;;;;;;;17.87;100.00;96524.47;5054268;28;20284;-84
2021/06/21 05:06:39;;;;;;;4.30;3.20;;;;;;;17.99;100.00;96533.53;5054463;28;20263;-84
2021/06/21 05:09:08;;;;;;;3.33;3.00;;;;;;;18.06;100.00;96537.84;5054006;28;20197;-84
2021/06/21 05:11:37;;;;;;;4.07;3.03;;;;;;;18.22;100.00;96533.19;5054305;28;20233;-84
2021/06/21 05:14:04;;;;;;;5.63;3.40;;;;;;;18.27;100.00;96522.78;5054115;28;20197;-84
2021/06/21 05:16:32;;;;;;;3.83;3.20;;;;;;;18.39;100.00;96525.66;5054600;28;20201;-83
2021/06/21 05:18:59;;;;;;;4.90;3.83;;;;;;;18.59;100.00;96518.53;5053856;28;20202;-83
2021/06/21 05:21:27;;;;;;;3.60;3.30;;;;;;;18.76;100.00;96513.69;5054496;28;20229;-84
2021/06/21 05:23:54;;;;;;;7.23;3.80;;;;;;;18.93;100.00;96514.09;5053681;28;20208;-84
2021/06/21 05:26:21;;;;;;;6.97;3.23;;;;;;;19.07;100.00;96509.59;5071327;28;20244;-84
2021/06/21 05:28:50;;;;;;;3.87;3.07;;;;;;;19.27;100.00;96494.41;5073963;28;20201;-84
2021/06/21 05:31:18;;;;;;;2.80;2.60;;;;;;;19.43;100.00;96519.78;5074309;28;20193;-84
2021/06/21 05:33:45;;;;;;;2.67;2.47;;;;;;;19.57;100.00;96550.75;5073695;28;20278;-84
2021/06/21 05:36:12;;;;;;;2.93;2.73;;;;;;;19.82;100.00;96590.09;5073908;28;20258;-84
2021/06/21 05:38:40;;;;;;;2.87;2.67;;;;;;;19.93;100.00;96618.81;5073865;28;20228;-84
2021/06/21 05:41:07;;;;;;;3.60;3.00;;;;;;;20.06;100.00;96641.97;5074105;28;20228;-84
2021/06/21 05:43:35;;;;;;;3.13;2.93;;;;;;;20.13;100.00;96672.94;5074001;28;20217;-84
2021/06/21 05:46:04;;;;;;;3.23;3.03;;;;;;;20.24;100.00;96686.66;5073675;28;20197;-84
2021/06/21 05:48:32;;;;;;;2.77;2.57;;;;;;;20.50;100.00;96721.31;5073178;28;20331;-84
2021/06/21 05:51:01;;;;;;;3.37;3.07;;;;;;;20.62;100.00;96732.19;5073673;28;20197;-84
2021/06/21 05:53:29;;;;;;;3.53;3.20;;;;;;;20.91;100.00;96752.19;5073578;28;20664;-84
2021/06/21 05:55:56;;;;;;;4.33;3.10;;;;;;;21.10;100.00;96756.66;5073538;28;20201;-84
2021/06/21 05:58:24;;;;;;;3.53;2.80;;;;;;;21.14;100.00;96749.03;5073470;28;20266;-84
2021/06/21 06:00:52;;;;;;;3.23;3.03;;;;;;;21.34;100.00;96748.94;5067300;28;20213;-84
2021/06/21 06:03:20;;;;;;;3.10;2.90;;;;;;;21.39;100.00;96745.63;5052124;28;20252;-84
2021/06/21 06:05:48;;;;;;;3.50;2.57;;;;;;;21.58;100.00;96750.84;5051921;28;20194;-84
2021/06/21 06:08:15;;;;;;;3.40;2.67;;;;;;;21.87;100.00;96737.06;5053124;28;20276;-84
2021/06/21 06:10:43;;;;;;;3.23;2.87;;;;;;;21.85;100.00;96737.25;5053166;28;20198;-84
2021/06/21 06:13:10;;;;;;;4.80;2.73;;;;;;;22.03;100.00;96748.03;5053089;28;20228;-84
2021/06/21 06:15:38;;;;;;;2.80;2.60;;;;;;;22.12;100.00;96747.75;5052772;28;20201;-84
2021/06/21 06:18:06;;;;;;;5.20;3.03;;;;;;;22.32;100.00;96718.97;5053104;28;20693;-85
2021/06/21 06:20:36;;;;;;;2.40;2.30;;;;;;;22.52;100.00;96705.38;5052902;28;20197;-85
2021/06/21 06:23:04;;;;;;;4.90;2.50;;;;;;;22.72;100.00;96691.72;5053114;28;20265;-84
2021/06/21 06:25:32;;;;;;;2.50;2.40;;;;;;;22.67;100.00;96656.75;5053060;28;20202;-84
2021/06/21 06:27:59;;;;;;;2.27;2.07;;;;;;;22.53;100.00;96597.97;5053273;28;20626;-85
2021/06/21 06:30:27;;;;;;;2.67;1.87;;;;;;;22.65;100.00;96598.03;5052768;28;20208;-85
2021/06/21 06:32:55;;;;;;;2.63;2.40;;;;;;;22.73;100.00;96586.19;5052917;28;20218;-85
2021/06/21 06:35:22;;;;;;;2.50;2.30;;;;;;;22.59;100.00;96580.19;5052107;28;20240;-84
2021/06/21 06:37:51;;;;;;;2.40;2.23;;;;;;;22.85;100.00;96583.53;5053177;28;20206;-84
2021/06/21 06:40:19;;;;;;;6.93;2.57;;;;;;;22.93;100.00;96564.47;5052857;28;20198;-85
2021/06/21 06:42:47;;;;;;;2.20;2.07;;;;;;;22.82;100.00;96531.22;5053235;28;20247;-84
2021/06/21 06:45:16;;;;;;;2.57;2.47;;;;;;;23.02;100.00;96550.50;5052700;28;20205;-84
2021/06/21 06:47:43;;;;;;;2.20;2.00;;;;;;;22.88;100.00;96554.41;5053372;28;20324;-85
2021/06/21 06:50:11;;;;;;;2.67;2.37;;;;;;;22.98;100.00;96552.03;5053510;28;20212;-84
2021/06/21 06:52:39;;;;;;;2.47;2.03;;;;;;;23.17;100.00;96541.22;5053085;28;20312;-84
2021/06/21 06:57:54;;;;;;;3.50;2.63;;;;;;;23.03;100.00;96588.84;5053469;28;20232;-84
2021/06/21 07:00:22;;;;;;;2.47;1.93;;;;;;;23.21;100.00;96606.75;5052761;28;20204;-85
2021/06/21 07:02:49;;;;;;;3.17;2.97;;;;;;;23.37;100.00;96579.25;5052538;28;20247;-84
2021/06/21 07:05:17;;;;;;;3.50;2.20;;;;;;;23.64;100.00;96535.88;5052664;28;20720;-85
2021/06/21 07:07:44;;;;;;;1.97;1.87;;;;;;;23.76;100.00;96504.47;5052488;28;20205;-85
2021/06/21 07:10:14;;;;;;;3.03;2.83;;;;;;;23.85;100.00;96513.00;5052533;28;20630;-85
2021/06/21 07:12:41;;;;;;;9.00;2.90;;;;;;;24.12;100.00;96506.03;5052812;28;20221;-85
2021/06/21 07:15:09;;;;;;;2.50;2.30;;;;;;;24.39;100.00;96474.06;5052311;28;20684;-85
2021/06/21 07:17:37;;;;;;;3.77;2.13;;;;;;;24.35;100.00;96478.28;5053598;28;20194;-85
2021/06/21 07:20:05;;;;;;;3.33;2.20;;;;;;;24.71;100.00;96452.06;5052700;28;20237;-85
2021/06/21 07:22:32;;;;;;;2.83;2.27;;;;;;;24.66;100.00;96449.28;5052646;28;20628;-84
2021/06/21 07:25:00;;;;;;;2.50;2.10;;;;;;;24.89;100.00;96403.41;5051644;28;20289;-85
2021/06/21 07:27:29;;;;;;;1.90;1.80;;;;;;;24.92;100.00;96342.97;5052079;28;20296;-85
2021/06/21 07:29:56;;;;;;;3.63;1.97;;;;;;;24.69;100.00;96362.78;5052059;28;20280;-85
2021/06/21 07:32:23;;;;;;;2.67;2.10;;;;;;;24.32;100.00;96365.13;5051763;28;20212;-85
2021/06/21 07:34:51;;;;;;;2.37;2.17;;;;;;;24.59;100.00;96373.38;5051930;28;20197;-85
2021/06/21 07:37:18;;;;;;;2.33;2.23;;;;;;;24.91;100.00;96382.50;5052669;28;20225;-85
2021/06/21 07:39:45;;;;;;;2.20;2.10;;;;;;;24.94;100.00;96365.06;5051689;28;20237;-85
2021/06/21 07:42:13;;;;;;;2.43;2.23;;;;;;;25.17;100.00;96377.50;5051895;28;20202;-85
2021/06/21 07:44:41;;;;;;;2.23;2.13;;;;;;;25.49;100.00;96356.09;5051653;28;20193;-85
2021/06/21 07:47:09;;;;;;;4.03;2.10;;;;;;;25.51;100.00;96353.97;5054793;28;20578;-85
2021/06/21 07:49:36;;;;;;;2.80;2.10;;;;;;;25.36;100.00;96265.84;5055679;28;20201;-85
2021/06/21 07:52:04;;;;;;;2.40;2.30;;;;;;;25.36;100.00;96273.91;5055824;28;20263;-85
2021/06/21 07:54:31;;;;;;;2.70;2.10;;;;;;;25.58;100.00;96351.91;5055336;28;20311;-85
2021/06/21 07:56:58;;;;;;;2.33;2.10;;;;;;;25.57;100.00;96303.75;5056126;28;20197;-85
2021/06/21 07:59:26;;;;;;;1.97;1.87;;;;;;;25.12;100.00;96262.59;5055572;28;20288;-85
2021/06/21 08:01:55;;;;;;;2.37;2.17;;;;;;;25.41;100.00;96272.34;5055830;28;20644;-85
2021/06/21 08:04:22;;;;;;;2.37;2.17;;;;;;;25.43;100.00;96219.09;5055792;28;20247;-85
2021/06/21 08:06:49;;;;;;;2.70;2.50;;;;;;;25.57;100.00;96241.84;5055695;28;20198;-85
2021/06/21 08:09:17;;;;;;;2.50;2.30;;;;;;;25.71;100.00;96306.84;5055417;28;20201;-85
2021/06/21 08:11:44;;;;;;;5.63;1.80;;;;;;;25.37;100.00;96234.38;5055237;28;20296;-85
2021/06/21 08:14:11;;;;;;;1.90;1.80;;;;;;;24.67;100.00;96244.00;5055212;28;20317;-85
2021/06/21 08:16:39;;;;;;;2.10;2.00;;;;;;;24.15;100.00;96400.03;5055434;28;20227;-85
2021/06/21 08:19:08;;;;;;;2.80;2.20;;;;;;;23.92;100.00;96463.50;5055362;28;20213;-85
2021/06/21 08:21:35;;;;;;;2.27;2.07;;;;;;;23.90;100.00;96436.09;5055079;28;20259;-84
2021/06/21 08:24:02;;;;;;;3.57;2.20;;;;;;;24.34;100.00;96388.00;5055108;28;20683;-85
2021/06/21 08:26:30;;;;;;;2.10;2.00;;;;;;;24.79;100.00;96416.69;5055130;28;20282;-85
2021/06/21 08:28:57;;;;;;;2.40;2.20;;;;;;;25.27;100.00;96403.72;5055356;28;20281;-85
2021/06/21 08:31:24;;;;;;;2.50;2.33;;;;;;;25.45;100.00;96295.78;5054792;28;20285;-85
2021/06/21 08:33:52;;;;;;;2.40;2.27;;;;;;;25.46;100.00;96335.09;5054827;28;20225;-85
2021/06/21 08:36:21;;;;;;;4.63;3.40;;;;;;;25.42;100.00;96360.84;5055035;28;20685;-85
2021/06/21 08:38:48;;;;;;;2.70;2.23;;;;;;;25.45;100.00;96346.91;5054821;28;20201;-85
2021/06/21 08:41:15;;;;;;;2.73;2.53;;;;;;;25.25;100.00;96390.53;5054920;28;20194;-85
2021/06/21 08:43:44;;;;;;;2.83;2.60;;;;;;;24.67;100.00;96354.97;5054594;28;20256;-85
2021/06/21 08:46:11;;;;;;;3.73;2.17;;;;;;;24.37;100.00;96411.69;5055128;28;20229;-85
2021/06/21 08:48:43;;;;;;;2.83;2.63;;;;;;;24.48;100.00;96463.75;5054455;28;20233;-85
2021/06/21 08:51:14;;;;;;;2.80;2.60;;;;;;;24.24;100.00;96446.91;5054587;28;20190;-84
2021/06/21 08:53:42;;;;;;;3.40;3.10;;;;;;;24.17;100.00;96432.81;5054527;28;20716;-85
2021/06/21 08:56:10;;;;;;;5.10;2.60;;;;;;;24.13;100.00;96443.22;5054651;28;20237;-85
2021/06/21 08:58:38;;;;;;;2.77;2.57;;;;;;;24.01;100.00;96559.78;5053929;28;20198;-85
2021/06/21 09:01:05;;;;;;;4.53;3.20;;;;;;;24.00;100.00;96628.75;5054300;28;20229;-85
2021/06/21 09:03:34;;;;;;;2.63;2.43;;;;;;;23.82;100.00;96780.00;5054421;28;20229;-84
2021/06/21 09:06:02;;;;;;;2.73;2.57;;;;;;;23.69;100.00;96895.59;5054515;28;20205;-85
2021/06/21 09:08:29;;;;;;;3.03;2.83;;;;;;;23.60;100.00;96970.19;5054297;28;20297;-85
2021/06/21 09:10:58;;;;;;;2.63;2.47;;;;;;;23.57;100.00;97010.88;5054181;28;20201;-85
2021/06/21 09:13:33;;;;;;;2.90;2.70;;;;;;;23.58;100.00;97044.72;5054163;28;20232;-85
2021/06/21 09:16:00;;;;;;;2.87;2.67;;;;;;;23.80;100.00;97060.44;5054367;28;20181;-85
2021/06/21 09:18:35;;;;;;;3.30;3.00;;;;;;;23.96;100.00;97033.78;5053980;28;20671;-84
2021/06/21 09:21:29;;;;;;;4.50;3.60;;;;;;;24.24;100.00;97012.81;5054216;28;20201;-85
2021/06/21 09:23:59;;;;;;;2.90;2.70;;;;;;;24.01;100.00;96871.22;5054005;28;20183;-84
2021/06/21 09:26:30;;;;;;;5.97;5.37;;;;;;;23.94;100.00;96786.22;5054160;28;20281;-85
2021/06/21 09:28:58;;;;;;;2.87;2.67;;;;;;;23.99;100.00;96737.19;5053825;28;20256;-85
2021/06/21 09:31:26;;;;;;;3.00;2.80;;;;;;;23.92;100.00;96669.38;5054246;28;20276;-85
2021/06/21 09:33:54;;;;;;;3.53;3.10;;;;;;;23.92;100.00;96643.34;5053774;28;20316;-84
2021/06/21 09:36:30;;;;;;;3.10;2.80;;;;;;;23.76;100.00;96729.09;5053844;28;20724;-85
2021/06/21 09:39:21;;;;;;;3.47;3.17;;;;;;;23.49;100.00;96741.03;5053771;28;20197;-84
2021/06/21 09:42:06;;;;;;;2.90;2.70;;;;;;;23.49;100.00;96783.97;5053845;28;20187;-84
2021/06/21 09:44:35;;;;;;;2.93;2.73;;;;;;;23.77;100.00;96787.13;5053999;28;20369;-85
2021/06/21 09:47:13;;;;;;;3.00;2.80;;;;;;;23.69;100.00;96708.59;5053533;28;20662;-84
2021/06/21 09:50:05;;;;;;;3.07;2.87;;;;;;;23.33;100.00;96771.19;5053559;28;20193;-85
2021/06/21 09:52:38;;;;;;;3.00;2.80;;;;;;;23.32;100.00;96785.66;5053689;28;20200;-85
2021/06/21 09:55:13;;;;;;;3.30;3.10;;;;;;;23.56;100.00;96879.66;5053138;28;20214;-84
2021/06/21 09:57:43;;;;;;;3.57;3.27;;;;;;;23.59;100.00;96882.69;5053892;28;20255;-85
2021/06/21 10:00:12;;;;;;;3.43;3.20;;;;;;;23.20;100.00;96867.88;5053236;28;20195;-84
2021/06/21 10:02:41;;;;;;;3.73;3.50;;;;;;;23.30;100.00;96867.38;5053451;28;20209;-85
2021/06/21 10:05:21;;;;;;;3.43;3.13;;;;;;;23.28;100.00;96827.38;5053495;28;20299;-84
2021/06/21 10:07:48;;;;;;;10.13;9.23;;;;;;;23.44;100.00;96871.53;5053474;28;20182;-84
2021/06/21 10:10:21;;;;;;;4.27;3.67;;;;;;;23.67;100.00;96835.94;5052038;28;20793;-85
2021/06/21 10:12:50;;;;;;;3.73;3.50;;;;;;;23.40;100.00;96795.22;5053608;28;20709;-85
2021/06/21 10:15:18;;;;;;;3.97;3.67;;;;;;;23.89;100.00;96868.47;5052970;28;20639;-85
2021/06/21 10:17:46;;;;;;;4.47;4.17;;;;;;;24.44;100.00;96895.16;5053475;28;20194;-85
2021/06/21 10:20:14;;;;;;;3.77;3.57;;;;;;;24.87;100.00;96872.50;5052883;28;20277;-85
2021/06/21 10:22:42;;;;;;;4.40;4.00;;;;;;;24.99;100.00;96797.22;5053122;28;20647;-85
2021/06/21 10:25:11;;;;;;;4.47;3.77;;;;;;;24.89;100.00;96731.41;5053077;28;20226;-84
2021/06/21 10:27:41;;;;;;;4.27;3.80;;;;;;;25.09;100.00;96757.91;5052905;28;20209;-85
2021/06/21 10:30:12;;;;;;;4.10;3.80;;;;;;;25.19;100.00;96716.16;5052614;28;20197;-85
2021/06/21 10:32:40;;;;;;;4.43;3.70;;;;;;;25.48;100.00;96714.25;5052968;28;20209;-85
2021/06/21 10:35:11;;;;;;;4.33;4.03;;;;;;;25.58;100.00;96698.28;5052807;28;20612;-84
2021/06/21 10:37:39;;;;;;;5.50;5.00;;;;;;;25.94;100.00;96737.41;5052792;28;20191;-84
2021/06/21 10:40:09;;;;;;;4.10;3.67;;;;;;;25.82;100.00;96616.34;5052803;28;20204;-85
2021/06/21 10:42:44;;;;;;;3.60;3.30;;;;;;;25.99;100.00;96605.53;5052451;28;20197;-85
2021/06/21 10:45:22;;;;;;;4.10;3.50;;;;;;;26.33;100.00;96600.88;5052528;28;20254;-85
2021/06/21 10:47:50;;;;;;;4.73;3.77;;;;;;;26.32;100.00;96622.66;5052710;28;20256;-85
2021/06/21 10:50:25;;;;;;;5.47;5.03;;;;;;;26.66;100.00;96685.38;5052157;28;20194;-85
2021/06/21 10:53:01;;;;;;;3.93;3.53;;;;;;;25.98;100.00;96643.47;5052286;28;20745;-85
2021/06/21 10:55:40;;;;;;;4.68;4.30;;;;;;;26.19;100.00;96712.75;5052481;28;20221;-85
2021/06/21 10:58:24;;;;;;;6.03;4.03;;;;;;;26.12;100.00;96676.25;5052404;28;20189;-84
2021/06/21 11:00:54;;;;;;;4.07;3.67;;;;;;;25.91;100.00;96667.91;5035651;28;20198;-85
2021/06/21 11:03:35;;;;;;;3.67;3.37;;;;;;;26.05;100.00;96674.59;5052607;28;20570;-85
2021/06/21 11:06:04;;;;;;;3.50;3.20;;;;;;;25.59;100.00;96706.09;5052233;28;20201;-85
2021/06/21 11:08:45;;;;;;;3.77;3.57;;;;;;;24.82;100.00;96728.06;5052046;28;20281;-84
2021/06/21 11:11:46;;;;;;;5.57;3.80;;;;;;;24.88;100.00;96794.31;5052048;28;20182;-85
2021/06/21 11:14:15;;;;;;;3.83;3.63;;;;;;;24.97;100.00;96761.66;5051842;28;20228;-85
2021/06/21 11:16:46;;;;;;;4.07;3.77;;;;;;;25.07;100.00;96778.03;5052404;28;20205;-85
2021/06/21 11:19:34;;;;;;;4.07;3.77;;;;;;;25.04;100.00;96765.03;5051961;28;20189;-85
2021/06/21 11:22:05;;;;;;;4.40;4.00;;;;;;;25.13;100.00;96785.97;5051519;28;20661;-85
2021/06/21 11:25:02;;;;;;;5.97;5.47;;;;;;;25.30;100.00;96847.94;5051828;28;20194;-85
2021/06/21 11:27:43;;;;;;;5.30;4.90;;;;;;;25.70;100.00;96817.50;5051931;28;20255;-85
2021/06/21 11:30:29;;;;;;;8.70;7.87;;;;;;;25.91;100.00;96877.97;5051869;28;20582;-85
2021/06/21 11:33:03;;;;;;;6.17;5.60;;;;;;;25.83;100.00;96852.22;5051894;28;20277;-85
2021/06/21 11:36:01;;;;;;;7.45;6.95;;;;;;;25.88;100.00;96807.59;5051614;28;20209;-85
2021/06/21 11:38:31;;;;;;;12.30;11.30;;;;;;;25.79;100.00;96794.53;5051783;28;20236;-85
2021/06/21 11:41:24;;;;;;;6.20;5.70;;;;;;;25.91;100.00;96750.53;5051843;28;20221;-85